sensor_id;sensor_type;location;lat;lon;timestamp;temperature;humidity
12287;DHT22;6206;53.100;11.098;2023-03-01T00:02:06;1.80;99.90
12287;DHT22;6206;53.100;11.098;2023-03-01T00:04:33;1.80;99.90
12287;DHT22;6206;53.100;11.098;2023-03-01T00:07:00;1.80;99.90
12287;DHT22;6206;53.100;11.098;2023-03-01T00:09:27;1.80;99.90
12287;DHT22;6206;53.100;11.098;2023-03-01T00:11:55;1.80;99.90
12287;DHT22;6206;53.100;11.098;2023-03-01T00:14:21;2.10;99.90
12287;DHT22;6206;53.100;11.098;2023-03-01T00:16:48;1.80;99.90
12287;DHT22;6206;53.100;11.098;2023-03-01T00:19:16;1.80;99.90
12287;DHT22;6206;53.100;11.098;2023-03-01T00:21:43;1.70;99.90
12287;DHT22;6206;53.100;11.098;2023-03-01T00:24:09;1.80;99.90
12287;DHT22;6206;53.100;11.098;2023-03-01T00:26:36;2.20;99.90
12287;DHT22;6206;53.100;11.098;2023-03-01T00:29:04;1.80;99.90
12287;DHT22;6206;53.100;11.098;2023-03-01T00:31:31;2.30;99.90
12287;DHT22;6206;53.100;11.098;2023-03-01T00:33:59;1.70;99.90
12287;DHT22;6206;53.100;11.098;2023-03-01T00:36:27;1.60;99.90
12287;DHT22;6206;53.100;11.098;2023-03-01T00:38:54;5.80;99.90
12287;DHT22;6206;53.100;11.098;2023-03-01T00:41:21;1.40;99.90
12287;DHT22;6206;53.100;11.098;2023-03-01T00:43:48;1.80;99.90
12287;DHT22;6206;53.100;11.098;2023-03-01T00:46:18;1.80;99.90
12287;DHT22;6206;53.100;11.098;2023-03-01T00:48:45;1.90;99.90
12287;DHT22;6206;53.100;11.098;2023-03-01T00:51:12;1.90;99.90
12287;DHT22;6206;53.100;11.098;2023-03-01T00:53:39;2.20;99.90
12287;DHT22;6206;53.100;11.098;2023-03-01T00:56:06;1.80;99.90
12287;DHT22;6206;53.100;11.098;2023-03-01T00:58:33;3.60;99.90
12287;DHT22;6206;53.100;11.098;2023-03-01T01:01:00;1.50;99.90
12287;DHT22;6206;53.100;11.098;2023-03-01T01:03:28;1.40;99.90
12287;DHT22;6206;53.100;11.098;2023-03-01T01:05:54;1.90;99.90
12287;DHT22;6206;53.100;11.098;2023-03-01T01:08:21;1.60;99.90
12287;DHT22;6206;53.100;11.098;2023-03-01T01:10:47;1.50;99.90
12287;DHT22;6206;53.100;11.098;2023-03-01T01:13:14;1.40;99.90
12287;DHT22;6206;53.100;11.098;2023-03-01T01:15:40;1.30;99.90
12287;DHT22;6206;53.100;11.098;2023-03-01T01:18:07;1.30;99.90
12287;DHT22;6206;53.100;11.098;2023-03-01T01:20:36;1.10;99.90
12287;DHT22;6206;53.100;11.098;2023-03-01T01:23:04;0.90;99.90
12287;DHT22;6206;53.100;11.098;2023-03-01T01:25:33;0.90;99.90
12287;DHT22;6206;53.100;11.098;2023-03-01T01:28:00;0.90;99.90
12287;DHT22;6206;53.100;11.098;2023-03-01T01:30:26;0.80;99.90
12287;DHT22;6206;53.100;11.098;2023-03-01T01:32:53;0.70;99.90
12287;DHT22;6206;53.100;11.098;2023-03-01T01:35:19;0.60;99.90
12287;DHT22;6206;53.100;11.098;2023-03-01T01:37:47;0.50;99.90
12287;DHT22;6206;53.100;11.098;2023-03-01T01:40:13;0.70;99.90
12287;DHT22;6206;53.100;11.098;2023-03-01T01:42:40;0.70;99.90
12287;DHT22;6206;53.100;11.098;2023-03-01T01:47:52;1.00;99.90
12287;DHT22;6206;53.100;11.098;2023-03-01T01:50:19;1.10;99.90
12287;DHT22;6206;53.100;11.098;2023-03-01T01:52:45;2.00;99.90
12287;DHT22;6206;53.100;11.098;2023-03-01T01:55:16;1.20;99.90
12287;DHT22;6206;53.100;11.098;2023-03-01T01:57:47;1.60;99.90
12287;DHT22;6206;53.100;11.098;2023-03-01T02:00:16;1.20;99.90
12287;DHT22;6206;53.100;11.098;2023-03-01T02:02:43;1.20;99.90
12287;DHT22;6206;53.100;11.098;2023-03-01T02:05:11;1.30;99.90
12287;DHT22;6206;53.100;11.098;2023-03-01T02:07:38;1.20;99.90
12287;DHT22;6206;53.100;11.098;2023-03-01T02:10:05;1.30;99.90
12287;DHT22;6206;53.100;11.098;2023-03-01T02:12:33;1.30;99.90
12287;DHT22;6206;53.100;11.098;2023-03-01T02:15:00;1.30;99.90
12287;DHT22;6206;53.100;11.098;2023-03-01T02:17:26;1.30;99.90
12287;DHT22;6206;53.100;11.098;2023-03-01T02:20:00;1.40;99.90
12287;DHT22;6206;53.100;11.098;2023-03-01T02:22:32;1.40;99.90
12287;DHT22;6206;53.100;11.098;2023-03-01T02:25:02;2.00;99.90
12287;DHT22;6206;53.100;11.098;2023-03-01T02:27:35;1.40;99.90
12287;DHT22;6206;53.100;11.098;2023-03-01T02:30:05;1.40;99.90
12287;DHT22;6206;53.100;11.098;2023-03-01T02:32:31;1.20;99.90
12287;DHT22;6206;53.100;11.098;2023-03-01T02:34:57;0.90;99.90
12287;DHT22;6206;53.100;11.098;2023-03-01T02:37:24;0.80;99.90
12287;DHT22;6206;53.100;11.098;2023-03-01T02:39:53;0.80;99.90
12287;DHT22;6206;53.100;11.098;2023-03-01T02:42:23;0.90;99.90
12287;DHT22;6206;53.100;11.098;2023-03-01T02:44:51;0.90;99.90
12287;DHT22;6206;53.100;11.098;2023-03-01T02:47:20;0.80;99.90
12287;DHT22;6206;53.100;11.098;2023-03-01T02:49:46;1.00;99.90
12287;DHT22;6206;53.100;11.098;2023-03-01T02:52:19;0.80;99.90
12287;DHT22;6206;53.100;11.098;2023-03-01T02:54:48;0.90;99.90
12287;DHT22;6206;53.100;11.098;2023-03-01T02:57:16;1.00;99.90
12287;DHT22;6206;53.100;11.098;2023-03-01T02:59:42;1.00;99.90
12287;DHT22;6206;53.100;11.098;2023-03-01T03:02:18;1.60;99.90
12287;DHT22;6206;53.100;11.098;2023-03-01T03:04:47;1.00;99.90
12287;DHT22;6206;53.100;11.098;2023-03-01T03:07:13;1.00;99.90
12287;DHT22;6206;53.100;11.098;2023-03-01T03:09:40;0.90;99.90
12287;DHT22;6206;53.100;11.098;2023-03-01T03:12:06;1.00;99.90
12287;DHT22;6206;53.100;11.098;2023-03-01T03:14:33;4.60;99.90
12287;DHT22;6206;53.100;11.098;2023-03-01T03:17:00;0.90;99.90
12287;DHT22;6206;53.100;11.098;2023-03-01T03:19:27;0.80;99.90
12287;DHT22;6206;53.100;11.098;2023-03-01T03:21:55;0.90;99.90
12287;DHT22;6206;53.100;11.098;2023-03-01T03:24:22;1.20;99.90
12287;DHT22;6206;53.100;11.098;2023-03-01T03:26:48;1.00;99.90
12287;DHT22;6206;53.100;11.098;2023-03-01T03:29:15;1.00;99.90
12287;DHT22;6206;53.100;11.098;2023-03-01T03:31:41;1.00;99.90
12287;DHT22;6206;53.100;11.098;2023-03-01T03:34:07;1.00;99.90
12287;DHT22;6206;53.100;11.098;2023-03-01T03:36:42;1.00;99.90
12287;DHT22;6206;53.100;11.098;2023-03-01T03:39:10;1.00;99.90
12287;DHT22;6206;53.100;11.098;2023-03-01T03:41:36;1.40;99.90
12287;DHT22;6206;53.100;11.098;2023-03-01T03:44:03;1.60;99.90
12287;DHT22;6206;53.100;11.098;2023-03-01T03:46:30;1.00;99.90
12287;DHT22;6206;53.100;11.098;2023-03-01T03:48:56;1.00;99.90
12287;DHT22;6206;53.100;11.098;2023-03-01T03:51:22;1.00;99.90
12287;DHT22;6206;53.100;11.098;2023-03-01T03:53:49;1.00;99.90
12287;DHT22;6206;53.100;11.098;2023-03-01T03:56:17;1.00;99.90
12287;DHT22;6206;53.100;11.098;2023-03-01T03:58:43;1.10;99.90
12287;DHT22;6206;53.100;11.098;2023-03-01T04:01:10;0.90;99.90
12287;DHT22;6206;53.100;11.098;2023-03-01T04:03:36;0.90;99.90
12287;DHT22;6206;53.100;11.098;2023-03-01T04:06:03;1.00;99.90
12287;DHT22;6206;53.100;11.098;2023-03-01T04:08:30;1.00;99.90
12287;DHT22;6206;53.100;11.098;2023-03-01T04:10:57;0.90;99.90
12287;DHT22;6206;53.100;11.098;2023-03-01T04:13:25;0.90;99.90
12287;DHT22;6206;53.100;11.098;2023-03-01T04:15:52;1.40;99.90
12287;DHT22;6206;53.100;11.098;2023-03-01T04:18:20;0.90;99.90
12287;DHT22;6206;53.100;11.098;2023-03-01T04:20:46;0.90;99.90
12287;DHT22;6206;53.100;11.098;2023-03-01T04:23:13;0.90;99.90
12287;DHT22;6206;53.100;11.098;2023-03-01T04:25:42;0.80;99.90
12287;DHT22;6206;53.100;11.098;2023-03-01T04:28:08;0.80;99.90
12287;DHT22;6206;53.100;11.098;2023-03-01T04:30:37;1.40;99.90
12287;DHT22;6206;53.100;11.098;2023-03-01T04:33:04;0.80;99.90
12287;DHT22;6206;53.100;11.098;2023-03-01T04:35:30;0.90;99.90
12287;DHT22;6206;53.100;11.098;2023-03-01T04:37:57;0.90;99.90
12287;DHT22;6206;53.100;11.098;2023-03-01T04:40:24;0.90;99.90
12287;DHT22;6206;53.100;11.098;2023-03-01T04:42:50;0.90;99.90
12287;DHT22;6206;53.100;11.098;2023-03-01T04:45:17;0.90;99.90
12287;DHT22;6206;53.100;11.098;2023-03-01T04:47:45;0.70;99.90
12287;DHT22;6206;53.100;11.098;2023-03-01T04:50:13;1.00;99.90
12287;DHT22;6206;53.100;11.098;2023-03-01T04:52:39;0.80;99.90
12287;DHT22;6206;53.100;11.098;2023-03-01T04:55:06;0.80;99.90
12287;DHT22;6206;53.100;11.098;2023-03-01T04:57:33;0.70;99.90
12287;DHT22;6206;53.100;11.098;2023-03-01T04:59:59;0.60;99.90
12287;DHT22;6206;53.100;11.098;2023-03-01T05:02:26;0.60;99.90
12287;DHT22;6206;53.100;11.098;2023-03-01T05:04:54;0.70;99.90
12287;DHT22;6206;53.100;11.098;2023-03-01T05:07:22;0.60;99.90
12287;DHT22;6206;53.100;11.098;2023-03-01T05:09:50;0.40;99.90
12287;DHT22;6206;53.100;11.098;2023-03-01T05:12:16;0.30;99.90
12287;DHT22;6206;53.100;11.098;2023-03-01T05:14:43;0.20;99.90
12287;DHT22;6206;53.100;11.098;2023-03-01T05:17:09;0.70;99.90
12287;DHT22;6206;53.100;11.098;2023-03-01T05:19:36;0.30;99.90
12287;DHT22;6206;53.100;11.098;2023-03-01T05:22:03;0.40;99.90
12287;DHT22;6206;53.100;11.098;2023-03-01T05:24:30;0.80;99.90
12287;DHT22;6206;53.100;11.098;2023-03-01T05:26:57;0.50;99.90
12287;DHT22;6206;53.100;11.098;2023-03-01T05:29:24;0.50;99.90
12287;DHT22;6206;53.100;11.098;2023-03-01T05:31:51;0.60;99.90
12287;DHT22;6206;53.100;11.098;2023-03-01T05:34:18;0.60;99.90
12287;DHT22;6206;53.100;11.098;2023-03-01T05:36:48;0.50;99.90
12287;DHT22;6206;53.100;11.098;2023-03-01T05:39:17;0.50;99.90
12287;DHT22;6206;53.100;11.098;2023-03-01T05:41:44;1.00;99.90
12287;DHT22;6206;53.100;11.098;2023-03-01T05:44:10;0.40;99.90
12287;DHT22;6206;53.100;11.098;2023-03-01T05:46:37;0.40;99.90
12287;DHT22;6206;53.100;11.098;2023-03-01T05:49:03;0.50;99.90
12287;DHT22;6206;53.100;11.098;2023-03-01T05:51:30;0.40;99.90
12287;DHT22;6206;53.100;11.098;2023-03-01T05:53:57;0.50;99.90
12287;DHT22;6206;53.100;11.098;2023-03-01T05:56:25;0.40;99.90
12287;DHT22;6206;53.100;11.098;2023-03-01T05:58:52;0.90;99.90
12287;DHT22;6206;53.100;11.098;2023-03-01T06:01:18;0.50;99.90
12287;DHT22;6206;53.100;11.098;2023-03-01T06:03:44;0.60;99.90
12287;DHT22;6206;53.100;11.098;2023-03-01T06:06:11;0.60;99.90
12287;DHT22;6206;53.100;11.098;2023-03-01T06:08:37;0.70;99.90
12287;DHT22;6206;53.100;11.098;2023-03-01T06:11:04;0.70;99.90
12287;DHT22;6206;53.100;11.098;2023-03-01T06:13:33;0.70;99.90
12287;DHT22;6206;53.100;11.098;2023-03-01T06:16:00;1.60;99.90
12287;DHT22;6206;53.100;11.098;2023-03-01T06:18:26;1.00;99.90
12287;DHT22;6206;53.100;11.098;2023-03-01T06:20:53;0.60;99.90
12287;DHT22;6206;53.100;11.098;2023-03-01T06:23:19;0.50;99.90
12287;DHT22;6206;53.100;11.098;2023-03-01T06:25:46;0.50;99.90
12287;DHT22;6206;53.100;11.098;2023-03-01T06:28:12;0.60;99.90
12287;DHT22;6206;53.100;11.098;2023-03-01T06:30:40;0.60;99.90
12287;DHT22;6206;53.100;11.098;2023-03-01T06:33:07;0.60;99.90
12287;DHT22;6206;53.100;11.098;2023-03-01T06:35:34;0.60;99.90
12287;DHT22;6206;53.100;11.098;2023-03-01T06:38:01;0.60;99.90
12287;DHT22;6206;53.100;11.098;2023-03-01T06:40:28;0.50;99.90
12287;DHT22;6206;53.100;11.098;2023-03-01T06:42:56;0.50;99.90
12287;DHT22;6206;53.100;11.098;2023-03-01T06:45:23;0.60;99.90
12287;DHT22;6206;53.100;11.098;2023-03-01T06:47:51;0.60;99.90
12287;DHT22;6206;53.100;11.098;2023-03-01T06:50:18;1.00;99.90
12287;DHT22;6206;53.100;11.098;2023-03-01T06:52:45;0.70;99.90
12287;DHT22;6206;53.100;11.098;2023-03-01T06:55:11;0.70;99.90
12287;DHT22;6206;53.100;11.098;2023-03-01T06:57:38;0.70;99.90
12287;DHT22;6206;53.100;11.098;2023-03-01T07:00:05;0.70;99.90
12287;DHT22;6206;53.100;11.098;2023-03-01T07:02:32;0.80;99.90
12287;DHT22;6206;53.100;11.098;2023-03-01T07:05:00;0.90;99.90
12287;DHT22;6206;53.100;11.098;2023-03-01T07:07:26;1.40;99.90
12287;DHT22;6206;53.100;11.098;2023-03-01T07:09:53;0.90;99.90
12287;DHT22;6206;53.100;11.098;2023-03-01T07:12:19;1.00;99.90
12287;DHT22;6206;53.100;11.098;2023-03-01T07:14:46;1.00;99.90
12287;DHT22;6206;53.100;11.098;2023-03-01T07:17:12;1.00;99.90
12287;DHT22;6206;53.100;11.098;2023-03-01T07:19:38;1.00;99.90
12287;DHT22;6206;53.100;11.098;2023-03-01T07:22:06;4.40;99.90
12287;DHT22;6206;53.100;11.098;2023-03-01T07:24:34;1.50;99.90
12287;DHT22;6206;53.100;11.098;2023-03-01T07:27:01;1.10;99.90
12287;DHT22;6206;53.100;11.098;2023-03-01T07:29:27;1.20;99.90
12287;DHT22;6206;53.100;11.098;2023-03-01T07:31:54;1.20;99.90
12287;DHT22;6206;53.100;11.098;2023-03-01T07:34:21;1.20;99.90
12287;DHT22;6206;53.100;11.098;2023-03-01T07:36:47;1.80;99.90
12287;DHT22;6206;53.100;11.098;2023-03-01T07:39:15;1.20;99.90
12287;DHT22;6206;53.100;11.098;2023-03-01T07:41:42;1.70;99.90
12287;DHT22;6206;53.100;11.098;2023-03-01T07:44:08;1.30;99.90
12287;DHT22;6206;53.100;11.098;2023-03-01T07:46:35;1.80;99.90
12287;DHT22;6206;53.100;11.098;2023-03-01T07:49:01;1.30;99.90
12287;DHT22;6206;53.100;11.098;2023-03-01T07:51:27;1.20;99.90
12287;DHT22;6206;53.100;11.098;2023-03-01T07:53:54;1.30;99.90
12287;DHT22;6206;53.100;11.098;2023-03-01T07:56:22;1.40;99.90
12287;DHT22;6206;53.100;11.098;2023-03-01T07:58:48;1.60;99.90
12287;DHT22;6206;53.100;11.098;2023-03-01T08:01:15;1.50;99.90
12287;DHT22;6206;53.100;11.098;2023-03-01T08:03:42;1.70;99.90
12287;DHT22;6206;53.100;11.098;2023-03-01T08:06:10;1.80;99.90
12287;DHT22;6206;53.100;11.098;2023-03-01T08:08:37;1.80;99.90
12287;DHT22;6206;53.100;11.098;2023-03-01T08:11:04;1.90;99.90
12287;DHT22;6206;53.100;11.098;2023-03-01T08:13:32;2.00;99.90
12287;DHT22;6206;53.100;11.098;2023-03-01T08:16:02;2.50;99.90
12287;DHT22;6206;53.100;11.098;2023-03-01T08:18:29;2.10;99.90
12287;DHT22;6206;53.100;11.098;2023-03-01T08:20:55;2.30;99.90
12287;DHT22;6206;53.100;11.098;2023-03-01T08:23:22;2.10;99.90
12287;DHT22;6206;53.100;11.098;2023-03-01T08:25:48;2.70;99.90
12287;DHT22;6206;53.100;11.098;2023-03-01T08:28:14;2.20;99.90
12287;DHT22;6206;53.100;11.098;2023-03-01T08:30:42;2.30;99.90
12287;DHT22;6206;53.100;11.098;2023-03-01T08:33:09;2.40;99.90
12287;DHT22;6206;53.100;11.098;2023-03-01T08:35:35;2.50;99.90
12287;DHT22;6206;53.100;11.098;2023-03-01T08:38:02;2.60;99.90
12287;DHT22;6206;53.100;11.098;2023-03-01T08:40:28;3.00;99.90
12287;DHT22;6206;53.100;11.098;2023-03-01T08:42:55;2.90;99.90
12287;DHT22;6206;53.100;11.098;2023-03-01T08:45:21;3.00;99.90
12287;DHT22;6206;53.100;11.098;2023-03-01T08:47:50;3.60;99.90
12287;DHT22;6206;53.100;11.098;2023-03-01T08:50:18;3.60;99.90
12287;DHT22;6206;53.100;11.098;2023-03-01T08:52:44;3.30;99.90
12287;DHT22;6206;53.100;11.098;2023-03-01T08:55:11;3.40;99.90
12287;DHT22;6206;53.100;11.098;2023-03-01T08:57:37;3.50;99.90
12287;DHT22;6206;53.100;11.098;2023-03-01T09:00:04;3.60;99.90
12287;DHT22;6206;53.100;11.098;2023-03-01T09:02:33;3.70;99.90
12287;DHT22;6206;53.100;11.098;2023-03-01T09:05:01;3.80;99.90
12287;DHT22;6206;53.100;11.098;2023-03-01T09:07:28;4.20;99.90
12287;DHT22;6206;53.100;11.098;2023-03-01T09:09:54;4.00;99.90
12287;DHT22;6206;53.100;11.098;2023-03-01T09:12:21;4.00;99.90
12287;DHT22;6206;53.100;11.098;2023-03-01T09:14:47;4.10;99.90
12287;DHT22;6206;53.100;11.098;2023-03-01T09:17:14;4.70;99.90
12287;DHT22;6206;53.100;11.098;2023-03-01T09:19:40;4.60;99.90
12287;DHT22;6206;53.100;11.098;2023-03-01T09:22:08;4.80;99.90
12287;DHT22;6206;53.100;11.098;2023-03-01T09:24:34;4.70;99.90
12287;DHT22;6206;53.100;11.098;2023-03-01T09:27:01;5.00;99.90
12287;DHT22;6206;53.100;11.098;2023-03-01T09:29:28;4.50;99.90
12287;DHT22;6206;53.100;11.098;2023-03-01T09:31:56;4.60;99.90
12287;DHT22;6206;53.100;11.098;2023-03-01T09:34:22;5.10;99.90
12287;DHT22;6206;53.100;11.098;2023-03-01T09:36:49;4.60;99.90
12287;DHT22;6206;53.100;11.098;2023-03-01T09:39:17;5.30;99.90
12287;DHT22;6206;53.100;11.098;2023-03-01T09:41:47;4.80;99.90
12287;DHT22;6206;53.100;11.098;2023-03-01T09:44:24;4.90;99.90
12287;DHT22;6206;53.100;11.098;2023-03-01T09:46:52;5.00;99.90
12287;DHT22;6206;53.100;11.098;2023-03-01T09:49:19;5.10;99.90
12287;DHT22;6206;53.100;11.098;2023-03-01T09:51:48;5.10;99.90
12287;DHT22;6206;53.100;11.098;2023-03-01T09:54:21;5.20;99.90
12287;DHT22;6206;53.100;11.098;2023-03-01T09:56:52;5.90;99.90
12287;DHT22;6206;53.100;11.098;2023-03-01T09:59:21;5.30;99.90
12287;DHT22;6206;53.100;11.098;2023-03-01T10:01:50;5.40;99.90
12287;DHT22;6206;53.100;11.098;2023-03-01T10:04:24;5.80;99.90
12287;DHT22;6206;53.100;11.098;2023-03-01T10:06:55;5.50;99.90
12287;DHT22;6206;53.100;11.098;2023-03-01T10:09:25;6.10;99.90
12287;DHT22;6206;53.100;11.098;2023-03-01T10:11:53;5.60;99.90
12287;DHT22;6206;53.100;11.098;2023-03-01T10:14:23;5.70;99.90
12287;DHT22;6206;53.100;11.098;2023-03-01T10:16:54;6.10;99.90
12287;DHT22;6206;53.100;11.098;2023-03-01T10:19:24;6.30;99.90
12287;DHT22;6206;53.100;11.098;2023-03-01T10:21:53;6.10;99.90
12287;DHT22;6206;53.100;11.098;2023-03-01T10:24:20;6.00;99.90
12287;DHT22;6206;53.100;11.098;2023-03-01T10:26:50;6.00;99.90
12287;DHT22;6206;53.100;11.098;2023-03-01T10:29:19;6.10;99.90
12287;DHT22;6206;53.100;11.098;2023-03-01T10:31:50;6.10;99.90
12287;DHT22;6206;53.100;11.098;2023-03-01T10:34:17;6.20;99.90
12287;DHT22;6206;53.100;11.098;2023-03-01T10:36:46;6.30;99.90
12287;DHT22;6206;53.100;11.098;2023-03-01T10:39:15;6.60;99.90
12287;DHT22;6206;53.100;11.098;2023-03-01T10:41:54;6.40;99.90
12287;DHT22;6206;53.100;11.098;2023-03-01T10:47:16;6.50;99.90
12287;DHT22;6206;53.100;11.098;2023-03-01T10:49:52;6.60;99.90
12287;DHT22;6206;53.100;11.098;2023-03-01T10:52:20;6.60;99.90
12287;DHT22;6206;53.100;11.098;2023-03-01T10:54:51;6.60;99.90
12287;DHT22;6206;53.100;11.098;2023-03-01T10:57:27;6.60;99.90
12287;DHT22;6206;53.100;11.098;2023-03-01T11:00:00;6.70;99.90
12287;DHT22;6206;53.100;11.098;2023-03-01T11:02:29;6.70;99.90
12287;DHT22;6206;53.100;11.098;2023-03-01T11:04:58;6.70;99.90
12287;DHT22;6206;53.100;11.098;2023-03-01T11:07:25;6.70;99.90
12287;DHT22;6206;53.100;11.098;2023-03-01T11:09:52;6.80;99.90
12287;DHT22;6206;53.100;11.098;2023-03-01T11:12:19;6.80;99.90
12287;DHT22;6206;53.100;11.098;2023-03-01T11:14:48;6.80;99.90
12287;DHT22;6206;53.100;11.098;2023-03-01T11:17:15;6.80;99.90
12287;DHT22;6206;53.100;11.098;2023-03-01T11:19:43;6.80;99.90
12287;DHT22;6206;53.100;11.098;2023-03-01T11:22:25;6.80;99.90
12287;DHT22;6206;53.100;11.098;2023-03-01T11:24:53;6.90;99.90
12287;DHT22;6206;53.100;11.098;2023-03-01T11:27:21;6.90;99.90
12287;DHT22;6206;53.100;11.098;2023-03-01T11:29:51;7.00;99.90
12287;DHT22;6206;53.100;11.098;2023-03-01T11:32:19;7.00;99.90
12287;DHT22;6206;53.100;11.098;2023-03-01T11:34:50;7.00;99.90
12287;DHT22;6206;53.100;11.098;2023-03-01T11:37:21;7.10;99.90
12287;DHT22;6206;53.100;11.098;2023-03-01T11:39:52;7.10;99.90
12287;DHT22;6206;53.100;11.098;2023-03-01T11:42:23;7.10;99.90
12287;DHT22;6206;53.100;11.098;2023-03-01T11:45:06;7.00;99.90
12287;DHT22;6206;53.100;11.098;2023-03-01T11:47:39;7.10;99.90
12287;DHT22;6206;53.100;11.098;2023-03-01T11:50:14;11.20;99.90
12287;DHT22;6206;53.100;11.098;2023-03-01T11:52:45;7.20;99.90
12287;DHT22;6206;53.100;11.098;2023-03-01T11:55:17;7.20;99.90
12287;DHT22;6206;53.100;11.098;2023-03-01T11:57:49;7.20;99.90
12287;DHT22;6206;53.100;11.098;2023-03-01T12:00:22;7.80;99.90
12287;DHT22;6206;53.100;11.098;2023-03-01T12:03:07;7.50;99.90
12287;DHT22;6206;53.100;11.098;2023-03-01T12:05:51;7.30;99.90
12287;DHT22;6206;53.100;11.098;2023-03-01T12:08:24;7.30;99.90
12287;DHT22;6206;53.100;11.098;2023-03-01T12:10:57;7.40;99.90
12287;DHT22;6206;53.100;11.098;2023-03-01T12:13:41;7.80;99.90
12287;DHT22;6206;53.100;11.098;2023-03-01T12:16:15;7.40;99.90
12287;DHT22;6206;53.100;11.098;2023-03-01T12:18:56;7.40;99.90
12287;DHT22;6206;53.100;11.098;2023-03-01T12:21:30;7.50;99.90
12287;DHT22;6206;53.100;11.098;2023-03-01T12:24:07;7.50;99.90
12287;DHT22;6206;53.100;11.098;2023-03-01T12:26:38;7.50;99.90
12287;DHT22;6206;53.100;11.098;2023-03-01T12:29:18;7.40;99.90
12287;DHT22;6206;53.100;11.098;2023-03-01T12:34:36;7.40;99.90
12287;DHT22;6206;53.100;11.098;2023-03-01T12:37:12;7.40;99.90
12287;DHT22;6206;53.100;11.098;2023-03-01T12:39:43;7.50;99.90
12287;DHT22;6206;53.100;11.098;2023-03-01T12:42:17;7.50;99.90
12287;DHT22;6206;53.100;11.098;2023-03-01T12:44:57;7.60;99.90
12287;DHT22;6206;53.100;11.098;2023-03-01T12:47:30;7.50;99.90
12287;DHT22;6206;53.100;11.098;2023-03-01T12:50:04;7.50;99.90
12287;DHT22;6206;53.100;11.098;2023-03-01T12:52:33;7.60;99.90
12287;DHT22;6206;53.100;11.098;2023-03-01T12:55:02;7.60;99.90
12287;DHT22;6206;53.100;11.098;2023-03-01T12:57:34;7.60;99.90
12287;DHT22;6206;53.100;11.098;2023-03-01T13:00:09;7.70;99.90
12287;DHT22;6206;53.100;11.098;2023-03-01T13:02:42;7.70;99.90
12287;DHT22;6206;53.100;11.098;2023-03-01T13:05:20;7.90;99.90
12287;DHT22;6206;53.100;11.098;2023-03-01T13:07:52;7.80;99.90
12287;DHT22;6206;53.100;11.098;2023-03-01T13:10:22;7.70;99.90
12287;DHT22;6206;53.100;11.098;2023-03-01T13:12:52;7.80;99.90
12287;DHT22;6206;53.100;11.098;2023-03-01T13:15:29;7.80;99.90
12287;DHT22;6206;53.100;11.098;2023-03-01T13:17:56;7.80;99.90
12287;DHT22;6206;53.100;11.098;2023-03-01T13:20:25;7.80;99.90
12287;DHT22;6206;53.100;11.098;2023-03-01T13:23:00;7.90;99.90
12287;DHT22;6206;53.100;11.098;2023-03-01T13:25:27;7.80;99.90
12287;DHT22;6206;53.100;11.098;2023-03-01T13:27:53;9.90;99.90
12287;DHT22;6206;53.100;11.098;2023-03-01T13:30:41;8.20;99.90
12287;DHT22;6206;53.100;11.098;2023-03-01T13:35:49;7.90;99.90
12287;DHT22;6206;53.100;11.098;2023-03-01T13:41:02;8.00;99.90
12287;DHT22;6206;53.100;11.098;2023-03-01T13:43:31;8.10;99.90
12287;DHT22;6206;53.100;11.098;2023-03-01T13:45:59;8.10;99.90
12287;DHT22;6206;53.100;11.098;2023-03-01T13:48:27;8.30;99.90
12287;DHT22;6206;53.100;11.098;2023-03-01T13:50:55;8.20;99.90
12287;DHT22;6206;53.100;11.098;2023-03-01T13:53:24;8.20;99.90
12287;DHT22;6206;53.100;11.098;2023-03-01T13:55:52;8.20;99.90
12287;DHT22;6206;53.100;11.098;2023-03-01T13:58:23;8.20;99.90
12287;DHT22;6206;53.100;11.098;2023-03-01T14:00:57;8.20;99.90
12287;DHT22;6206;53.100;11.098;2023-03-01T14:03:25;8.20;99.90
12287;DHT22;6206;53.100;11.098;2023-03-01T14:05:59;8.30;99.90
12287;DHT22;6206;53.100;11.098;2023-03-01T14:08:26;8.30;99.90
12287;DHT22;6206;53.100;11.098;2023-03-01T14:10:58;8.20;99.90
12287;DHT22;6206;53.100;11.098;2023-03-01T14:13:30;8.10;99.90
12287;DHT22;6206;53.100;11.098;2023-03-01T14:16:03;8.10;99.90
12287;DHT22;6206;53.100;11.098;2023-03-01T14:18:35;8.30;99.90
12287;DHT22;6206;53.100;11.098;2023-03-01T14:21:06;8.40;99.90
12287;DHT22;6206;53.100;11.098;2023-03-01T14:23:33;8.40;99.90
12287;DHT22;6206;53.100;11.098;2023-03-01T14:26:00;9.00;99.90
12287;DHT22;6206;53.100;11.098;2023-03-01T14:28:28;8.70;99.90
12287;DHT22;6206;53.100;11.098;2023-03-01T14:30:55;8.50;99.90
12287;DHT22;6206;53.100;11.098;2023-03-01T14:33:23;8.50;99.90
12287;DHT22;6206;53.100;11.098;2023-03-01T14:35:55;8.40;99.90
12287;DHT22;6206;53.100;11.098;2023-03-01T14:38:23;8.40;99.90
12287;DHT22;6206;53.100;11.098;2023-03-01T14:40:50;9.00;99.90
12287;DHT22;6206;53.100;11.098;2023-03-01T14:43:18;8.50;99.90
12287;DHT22;6206;53.100;11.098;2023-03-01T14:45:46;8.80;99.90
12287;DHT22;6206;53.100;11.098;2023-03-01T14:48:14;8.50;99.90
12287;DHT22;6206;53.100;11.098;2023-03-01T14:50:41;8.70;99.90
12287;DHT22;6206;53.100;11.098;2023-03-01T14:53:14;8.90;99.90
12287;DHT22;6206;53.100;11.098;2023-03-01T14:55:44;8.40;99.90
12287;DHT22;6206;53.100;11.098;2023-03-01T14:58:12;8.70;99.90
12287;DHT22;6206;53.100;11.098;2023-03-01T15:00:39;8.50;99.90
12287;DHT22;6206;53.100;11.098;2023-03-01T15:03:07;8.50;99.90
12287;DHT22;6206;53.100;11.098;2023-03-01T15:05:39;8.50;99.90
12287;DHT22;6206;53.100;11.098;2023-03-01T15:08:05;8.60;99.90
12287;DHT22;6206;53.100;11.098;2023-03-01T15:10:34;8.70;99.90
12287;DHT22;6206;53.100;11.098;2023-03-01T15:13:11;8.60;99.90
12287;DHT22;6206;53.100;11.098;2023-03-01T15:15:38;8.50;99.90
12287;DHT22;6206;53.100;11.098;2023-03-01T15:18:13;8.50;99.90
12287;DHT22;6206;53.100;11.098;2023-03-01T15:20:40;8.50;99.90
12287;DHT22;6206;53.100;11.098;2023-03-01T15:23:12;9.00;99.90
12287;DHT22;6206;53.100;11.098;2023-03-01T15:25:44;8.50;99.90
12287;DHT22;6206;53.100;11.098;2023-03-01T15:28:13;8.50;99.90
12287;DHT22;6206;53.100;11.098;2023-03-01T15:30:42;8.50;99.90
12287;DHT22;6206;53.100;11.098;2023-03-01T15:33:28;8.70;99.90
12287;DHT22;6206;53.100;11.098;2023-03-01T15:35:55;8.50;99.90
12287;DHT22;6206;53.100;11.098;2023-03-01T15:38:24;8.40;99.90
12287;DHT22;6206;53.100;11.098;2023-03-01T15:40:52;8.40;99.90
12287;DHT22;6206;53.100;11.098;2023-03-01T15:46:00;8.50;99.90
12287;DHT22;6206;53.100;11.098;2023-03-01T15:48:27;8.50;99.90
12287;DHT22;6206;53.100;11.098;2023-03-01T15:50:54;8.50;99.90
12287;DHT22;6206;53.100;11.098;2023-03-01T15:53:20;8.50;99.90
12287;DHT22;6206;53.100;11.098;2023-03-01T15:55:47;8.80;99.90
12287;DHT22;6206;53.100;11.098;2023-03-01T15:58:17;9.00;99.90
12287;DHT22;6206;53.100;11.098;2023-03-01T16:00:44;8.50;99.90
12287;DHT22;6206;53.100;11.098;2023-03-01T16:03:13;8.50;99.90
12287;DHT22;6206;53.100;11.098;2023-03-01T16:05:46;8.50;99.90
12287;DHT22;6206;53.100;11.098;2023-03-01T16:08:13;8.50;99.90
12287;DHT22;6206;53.100;11.098;2023-03-01T16:10:40;8.60;99.90